Time;durP1;ratioP1;P1;durP2;ratioP2;P2;SDS_P1;SDS_P2;PMS_P1;PMS_P2;Temp;Humidity;BMP_temperature;BMP_pressure;BME280_temperature;BME280_humidity;BME280_pressure;Samples;Min_cycle;Max_cycle;Signal;HPM_P1;HPM_P2
2021/09/02 00:00:49;;;;;;;8.48;5.18;;;;;;;14.50;74.29;102721.03;4955055;28;20475;-80
2021/09/02 00:03:16;;;;;;;10.88;5.63;;;;;;;14.51;74.41;102722.63;4954712;29;20066;-80
2021/09/02 00:05:44;;;;;;;7.65;5.40;;;;;;;14.48;74.45;102714.94;4955398;28;20055;-80
2021/09/02 00:08:11;;;;;;;11.95;6.93;;;;;;;14.46;74.47;102725.56;4955156;29;20058;-79
2021/09/02 00:10:37;;;;;;;10.40;5.72;;;;;;;14.47;74.41;102718.88;4955171;29;20094;-80
2021/09/02 00:13:04;;;;;;;8.55;5.38;;;;;;;14.44;74.49;102722.31;4954973;29;20047;-80
2021/09/02 00:15:31;;;;;;;10.98;5.90;;;;;;;14.43;74.67;102726.22;4970768;28;20402;-80
2021/09/02 00:17:59;;;;;;;8.13;5.20;;;;;;;14.44;74.49;102727.88;4971486;28;20039;-80
2021/09/02 00:20:27;;;;;;;10.32;6.00;;;;;;;14.41;74.42;102722.94;4955260;29;20043;-80
2021/09/02 00:22:56;;;;;;;9.90;5.65;;;;;;;14.38;74.85;102734.72;4955070;29;20507;-80
2021/09/02 00:25:23;;;;;;;8.43;5.22;;;;;;;14.38;74.71;102729.16;4952631;28;20471;-80
2021/09/02 00:27:50;;;;;;;7.32;5.00;;;;;;;14.38;74.60;102731.94;4936175;29;20499;-80
2021/09/02 00:30:16;;;;;;;7.55;5.07;;;;;;;14.37;74.69;102727.53;4954385;29;20047;-79
2021/09/02 00:32:46;;;;;;;8.88;5.20;;;;;;;14.39;74.69;102736.38;4954344;29;20143;-79
2021/09/02 00:35:13;;;;;;;8.30;4.85;;;;;;;14.39;74.85;102726.06;4953679;28;20055;-80
2021/09/02 00:37:40;;;;;;;7.43;4.53;;;;;;;14.37;74.77;102727.53;4954273;29;20047;-80
2021/09/02 00:40:07;;;;;;;7.63;4.88;;;;;;;14.35;74.73;102725.06;4953213;29;20410;-79
2021/09/02 00:42:34;;;;;;;12.73;5.68;;;;;;;14.32;74.91;102724.91;4954091;29;20517;-79
2021/09/02 00:45:01;;;;;;;12.88;5.53;;;;;;;14.30;74.90;102721.56;4921508;29;20482;-80
2021/09/02 00:47:28;;;;;;;17.75;6.82;;;;;;;14.29;74.92;102725.50;4952758;29;20049;-80
2021/09/02 00:49:55;;;;;;;9.43;5.40;;;;;;;14.28;74.89;102712.72;4954045;29;20112;-79
2021/09/02 00:52:41;;;;;;;8.00;5.53;;;;;;;14.25;74.91;102713.34;4954273;29;20079;-80
2021/09/02 00:55:09;;;;;;;8.32;5.93;;;;;;;14.22;75.23;102712.03;4949422;28;20079;-79
2021/09/02 00:57:37;;;;;;;8.30;4.95;;;;;;;14.22;75.33;102708.41;4933665;29;20074;-79
2021/09/02 01:00:13;;;;;;;8.90;5.03;;;;;;;14.18;75.22;102705.47;4937060;29;20047;-79
2021/09/02 01:02:42;;;;;;;11.25;6.13;;;;;;;14.17;75.37;102706.59;4935839;29;20083;-79
2021/09/02 01:05:10;;;;;;;9.90;5.05;;;;;;;14.17;75.25;102700.22;4944700;28;20043;-79
2021/09/02 01:07:37;;;;;;;7.65;5.20;;;;;;;14.12;75.50;102703.13;4954027;28;20054;-80
2021/09/02 01:10:06;;;;;;;10.68;5.57;;;;;;;14.07;75.35;102701.31;4952640;29;20055;-79
2021/09/02 01:12:47;;;;;;;10.38;6.32;;;;;;;14.06;75.55;102696.88;4953275;28;20458;-79
2021/09/02 01:15:17;;;;;;;7.78;5.32;;;;;;;14.04;75.42;102694.44;4952425;29;20134;-79
2021/09/02 01:17:48;;;;;;;11.15;5.55;;;;;;;14.02;75.68;102693.13;4952014;29;20043;-79
2021/09/02 01:20:19;;;;;;;8.27;5.55;;;;;;;14.01;75.59;102689.50;4935969;29;20134;-79
2021/09/02 01:22:51;;;;;;;8.40;5.07;;;;;;;14.03;75.54;102692.00;4948406;29;20562;-79
2021/09/02 01:25:20;;;;;;;8.25;6.10;;;;;;;13.98;75.68;102689.31;4953439;29;20054;-79
2021/09/02 01:27:50;;;;;;;9.32;6.40;;;;;;;13.96;75.66;102686.03;4931880;29;20055;-79
2021/09/02 01:30:17;;;;;;;11.60;5.68;;;;;;;13.93;75.99;102686.69;4953684;29;20047;-80
2021/09/02 01:32:46;;;;;;;13.82;7.60;;;;;;;13.90;76.19;102687.31;4953484;29;20521;-79
2021/09/02 01:35:15;;;;;;;9.88;6.20;;;;;;;13.89;75.89;102682.91;4958608;28;20046;-80
2021/09/02 01:37:56;;;;;;;13.32;6.75;;;;;;;13.81;76.14;102684.50;4953143;29;20050;-79
2021/09/02 01:40:30;;;;;;;9.32;6.10;;;;;;;13.77;76.46;102686.28;4917394;29;20496;-79
2021/09/02 01:42:58;;;;;;;12.55;5.45;;;;;;;13.79;76.12;102685.97;4938565;29;20058;-79
2021/09/02 01:45:25;;;;;;;9.93;5.53;;;;;;;13.76;76.25;102690.22;4952411;28;20047;-79
2021/09/02 01:47:56;;;;;;;12.00;6.22;;;;;;;13.74;76.38;102681.34;4952320;29;20047;-80
2021/09/02 01:50:24;;;;;;;13.60;6.22;;;;;;;13.77;76.23;102679.88;4953235;29;20078;-79
2021/09/02 01:52:54;;;;;;;13.13;6.75;;;;;;;13.77;76.28;102680.72;4952246;28;20118;-79
2021/09/02 01:55:22;;;;;;;10.38;6.18;;;;;;;13.79;76.09;102688.75;4947490;29;20043;-80
2021/09/02 01:57:50;;;;;;;10.40;6.50;;;;;;;13.78;76.36;102687.94;4939509;29;20058;-79
2021/09/02 02:00:18;;;;;;;13.88;6.38;;;;;;;13.76;76.63;102693.00;4953361;29;20531;-79
2021/09/02 02:02:45;;;;;;;11.75;7.55;;;;;;;13.72;76.41;102689.19;4953736;29;20495;-79
2021/09/02 02:05:12;;;;;;;12.02;6.50;;;;;;;13.71;76.54;102679.22;4952732;28;20051;-79
2021/09/02 02:07:40;;;;;;;10.30;6.03;;;;;;;13.68;76.70;102679.84;4953243;29;20463;-79
2021/09/02 02:10:14;;;;;;;10.63;6.45;;;;;;;13.66;76.70;102676.56;4953141;29;20055;-80
2021/09/02 02:12:41;;;;;;;10.98;5.80;;;;;;;13.68;76.85;102679.03;4934997;29;20052;-80
2021/09/02 02:15:10;;;;;;;11.65;7.00;;;;;;;13.69;76.86;102683.44;4942620;29;20073;-79
2021/09/02 02:17:39;;;;;;;11.63;5.82;;;;;;;13.67;76.72;102674.59;4952691;29;20411;-79
2021/09/02 02:20:10;;;;;;;10.23;5.90;;;;;;;13.63;76.96;102674.44;4948519;29;20047;-79
2021/09/02 02:22:37;;;;;;;14.13;6.07;;;;;;;13.64;77.11;102675.22;4952800;29;20047;-79
2021/09/02 02:25:06;;;;;;;13.65;6.35;;;;;;;13.63;77.25;102668.88;4940143;29;20047;-79
2021/09/02 02:27:33;;;;;;;10.20;5.43;;;;;;;13.62;77.21;102674.72;4953314;29;20082;-79
2021/09/02 02:30:00;;;;;;;9.88;6.53;;;;;;;13.61;77.00;102671.13;4920154;29;20055;-80
2021/09/02 02:32:27;;;;;;;12.27;6.75;;;;;;;13.60;77.05;102661.16;4945780;29;20098;-79
2021/09/02 02:34:54;;;;;;;13.60;6.38;;;;;;;13.57;77.14;102664.56;4953031;28;20470;-80
2021/09/02 02:37:21;;;;;;;13.00;8.48;;;;;;;13.59;77.12;102664.22;4932474;29;20048;-80
2021/09/02 02:39:47;;;;;;;12.95;6.50;;;;;;;13.60;77.46;102669.50;4947110;28;20053;-79
2021/09/02 02:42:15;;;;;;;15.00;7.70;;;;;;;13.58;77.39;102659.81;4972144;28;20055;-79
2021/09/02 02:44:42;;;;;;;12.23;7.20;;;;;;;13.59;77.44;102661.44;4954292;28;20047;-80
2021/09/02 02:47:09;;;;;;;12.32;6.53;;;;;;;13.58;77.57;102660.63;4946924;29;20047;-80
2021/09/02 02:49:37;;;;;;;14.07;8.15;;;;;;;13.56;77.77;102657.34;4934507;29;20055;-79
2021/09/02 02:52:04;;;;;;;17.00;7.63;;;;;;;13.52;77.96;102666.66;4957918;28;20058;-80
2021/09/02 02:54:32;;;;;;;14.65;7.63;;;;;;;13.48;77.99;102655.34;4972626;28;20046;-80
2021/09/02 02:56:58;;;;;;;13.43;8.05;;;;;;;13.50;77.81;102663.38;4973330;28;20082;-79
2021/09/02 02:59:25;;;;;;;17.85;8.05;;;;;;;13.49;78.04;102668.13;4975692;28;20134;-79
2021/09/02 03:01:52;;;;;;;14.30;8.95;;;;;;;13.51;78.14;102663.06;4950110;29;20055;-79
2021/09/02 03:04:20;;;;;;;11.23;7.53;;;;;;;13.50;78.06;102658.66;4947754;29;20043;-80
2021/09/02 03:06:46;;;;;;;16.65;8.88;;;;;;;13.51;78.01;102657.47;4924357;29;20054;-79
2021/09/02 03:09:13;;;;;;;24.70;10.43;;;;;;;13.50;78.12;102664.22;4931713;29;20047;-79
2021/09/02 03:11:40;;;;;;;14.57;8.57;;;;;;;13.49;78.18;102653.38;4949345;29;20078;-79
2021/09/02 03:14:07;;;;;;;18.80;9.13;;;;;;;13.49;78.23;102651.41;4947446;29;20039;-80
2021/09/02 03:16:33;;;;;;;11.90;8.43;;;;;;;13.44;78.56;102648.78;4949795;29;20113;-79
2021/09/02 03:19:00;;;;;;;27.80;10.85;;;;;;;13.41;78.49;102654.97;4937826;29;20047;-80
2021/09/02 03:21:27;;;;;;;17.58;9.25;;;;;;;13.41;78.56;102649.41;4930769;29;20054;-79
2021/09/02 03:23:53;;;;;;;12.30;8.68;;;;;;;13.43;78.41;102641.56;4948319;29;20125;-80
2021/09/02 03:26:20;;;;;;;16.38;8.60;;;;;;;13.45;78.44;102639.28;4948187;29;20055;-79
2021/09/02 03:28:47;;;;;;;15.63;9.35;;;;;;;13.47;78.58;102636.19;4947583;28;20055;-80
2021/09/02 03:31:14;;;;;;;19.25;10.30;;;;;;;13.49;78.86;102634.72;4948846;29;20035;-80
2021/09/02 03:33:41;;;;;;;16.50;11.07;;;;;;;13.51;78.96;102637.19;4948036;29;20043;-79
2021/09/02 03:36:07;;;;;;;23.65;10.70;;;;;;;13.49;78.99;102640.28;4948618;29;20051;-79
2021/09/02 03:38:34;;;;;;;20.08;9.57;;;;;;;13.45;79.17;102641.25;4947156;29;20053;-80
2021/09/02 03:41:01;;;;;;;16.40;8.68;;;;;;;13.42;79.35;102645.50;4931182;29;20043;-79
2021/09/02 03:43:27;;;;;;;15.93;9.80;;;;;;;13.40;79.80;102653.31;4947528;29;20056;-79
2021/09/02 03:45:54;;;;;;;24.42;10.68;;;;;;;13.42;79.96;102646.28;4945846;28;20433;-79
2021/09/02 03:48:21;;;;;;;18.20;9.23;;;;;;;13.43;79.87;102639.59;4948621;29;20407;-80
2021/09/02 03:50:48;;;;;;;14.75;9.55;;;;;;;13.46;79.95;102640.94;4948261;29;20062;-80
2021/09/02 03:53:15;;;;;;;15.93;8.95;;;;;;;13.50;80.07;102647.50;4931160;29;20058;-79
2021/09/02 03:55:42;;;;;;;16.08;9.52;;;;;;;13.56;79.96;102640.66;4947991;29;20047;-80
2021/09/02 03:58:08;;;;;;;17.45;9.85;;;;;;;13.63;80.12;102643.81;4947301;29;20032;-79
2021/09/02 04:00:36;;;;;;;15.18;7.40;;;;;;;13.69;80.15;102639.72;4947899;28;20054;-80
2021/09/02 04:03:03;;;;;;;16.35;9.35;;;;;;;13.74;80.13;102636.81;4947532;28;20047;-79
2021/09/02 04:05:31;;;;;;;19.33;9.18;;;;;;;13.76;80.26;102634.53;4947533;29;20522;-79
2021/09/02 04:07:57;;;;;;;18.05;8.52;;;;;;;13.78;80.23;102632.25;4929714;28;20197;-79
2021/09/02 04:10:24;;;;;;;19.17;8.80;;;;;;;13.80;80.21;102629.97;4946363;29;20051;-79
2021/09/02 04:12:51;;;;;;;16.25;9.25;;;;;;;13.83;80.56;102629.31;4944568;29;20043;-79
2021/09/02 04:15:18;;;;;;;15.40;7.97;;;;;;;13.88;80.13;102629.16;4946704;29;20500;-80
2021/09/02 04:17:45;;;;;;;13.07;8.77;;;;;;;13.92;80.54;102623.78;4947319;29;20134;-80
2021/09/02 04:20:12;;;;;;;15.85;8.43;;;;;;;13.95;80.44;102626.72;4929924;29;20047;-80
2021/09/02 04:22:38;;;;;;;17.48;9.10;;;;;;;13.96;80.38;102620.03;4947519;29;20039;-80
2021/09/02 04:25:06;;;;;;;15.88;9.13;;;;;;;14.00;80.46;102620.22;4947105;29;20043;-79
2021/09/02 04:27:33;;;;;;;17.35;8.30;;;;;;;14.00;80.94;102621.00;4947294;29;20576;-80
2021/09/02 04:30:00;;;;;;;15.70;8.20;;;;;;;14.03;80.76;102619.56;4946495;29;20047;-79
2021/09/02 04:32:27;;;;;;;18.83;8.60;;;;;;;14.06;80.78;102627.25;4943930;28;20134;-80
2021/09/02 04:34:53;;;;;;;17.15;8.85;;;;;;;14.07;80.78;102626.13;4929658;29;20047;-79
2021/09/02 04:37:20;;;;;;;19.48;9.15;;;;;;;14.07;81.09;102619.72;4928116;29;20051;-80
2021/09/02 04:39:47;;;;;;;14.93;8.68;;;;;;;14.10;81.16;102613.50;4927745;29;20502;-80
2021/09/02 04:42:14;;;;;;;15.77;9.77;;;;;;;14.13;81.11;102624.00;4946906;29;20845;-80
2021/09/02 04:44:41;;;;;;;17.50;9.50;;;;;;;14.17;81.05;102616.63;4929034;29;20410;-80
2021/09/02 04:47:07;;;;;;;26.42;11.48;;;;;;;14.16;81.23;102607.47;4946787;29;20043;-80
2021/09/02 04:49:34;;;;;;;19.88;9.98;;;;;;;14.16;81.06;102606.66;4946436;28;20454;-80
2021/09/02 04:52:01;;;;;;;24.10;10.00;;;;;;;14.14;81.48;102612.53;4928627;29;20066;-79
2021/09/02 04:54:27;;;;;;;15.35;9.05;;;;;;;14.15;81.16;102607.78;4946074;29;20413;-80
2021/09/02 04:56:54;;;;;;;20.73;9.02;;;;;;;14.17;81.16;102611.06;4944854;29;20059;-80
2021/09/02 04:59:21;;;;;;;18.63;8.68;;;;;;;14.20;81.31;102604.84;4945887;29;20130;-80
2021/09/02 05:01:48;;;;;;;16.35;9.20;;;;;;;14.22;81.40;102596.97;4928953;29;20045;-80
2021/09/02 05:04:15;;;;;;;23.73;9.50;;;;;;;14.24;81.32;102600.28;4946441;29;20039;-80
2021/09/02 05:06:41;;;;;;;16.25;8.95;;;;;;;14.25;81.36;102597.16;4946802;29;20120;-79
2021/09/02 05:09:08;;;;;;;14.18;9.60;;;;;;;14.29;81.40;102600.13;4913821;29;20525;-79
2021/09/02 05:11:35;;;;;;;29.10;10.40;;;;;;;14.30;81.50;102610.09;4946313;28;20106;-80
2021/09/02 05:14:02;;;;;;;19.45;10.30;;;;;;;14.30;81.53;102604.53;4946548;29;20086;-79
2021/09/02 05:16:29;;;;;;;20.85;9.50;;;;;;;14.31;81.57;102600.63;4944711;29;20053;-80
2021/09/02 05:18:56;;;;;;;23.63;10.80;;;;;;;14.31;81.56;102595.91;4946627;29;20047;-79
2021/09/02 05:21:23;;;;;;;22.23;11.52;;;;;;;14.33;81.59;102598.34;4913869;29;20051;-80
2021/09/02 05:23:50;;;;;;;16.58;10.30;;;;;;;14.33;81.70;102601.97;4928837;29;20061;-80
2021/09/02 05:26:17;;;;;;;23.45;12.45;;;;;;;14.35;81.62;102610.00;4912653;29;20047;-80
2021/09/02 05:28:43;;;;;;;17.27;10.13;;;;;;;14.34;81.73;102606.41;4929137;29;20063;-80
2021/09/02 05:31:10;;;;;;;26.48;9.63;;;;;;;14.34;81.84;102611.16;4943887;29;20099;-80
2021/09/02 05:33:37;;;;;;;20.92;9.68;;;;;;;14.34;81.87;102605.56;4946435;29;20043;-79
2021/09/02 05:36:04;;;;;;;16.70;8.45;;;;;;;14.33;81.83;102609.50;4944252;29;20055;-80
2021/09/02 05:38:31;;;;;;;16.60;8.60;;;;;;;14.32;81.95;102607.88;4928730;29;20427;-80
2021/09/02 05:40:58;;;;;;;15.07;7.55;;;;;;;14.32;81.59;102608.66;4912832;29;20047;-79
2021/09/02 05:43:24;;;;;;;12.18;7.07;;;;;;;14.30;81.07;102613.72;4944777;29;20055;-80
2021/09/02 05:45:51;;;;;;;10.55;6.60;;;;;;;14.30;80.92;102610.94;4929086;29;20098;-80
2021/09/02 05:48:18;;;;;;;18.15;7.43;;;;;;;14.31;80.51;102614.53;4928038;29;20574;-80
2021/09/02 05:50:45;;;;;;;8.32;6.25;;;;;;;14.27;79.56;102606.00;4928385;29;20059;-80
2021/09/02 05:53:11;;;;;;;14.68;6.57;;;;;;;14.27;79.44;102608.78;4945680;29;20086;-79
2021/09/02 05:55:38;;;;;;;12.05;6.78;;;;;;;14.28;79.03;102612.41;4943370;28;20043;-79
2021/09/02 05:58:05;;;;;;;9.60;5.97;;;;;;;14.29;78.57;102608.50;4912953;29;20130;-80
2021/09/02 06:00:32;;;;;;;11.50;5.82;;;;;;;14.28;78.07;102602.09;4928561;29;20467;-79
2021/09/02 06:02:59;;;;;;;12.00;6.30;;;;;;;14.33;78.21;102612.28;4945588;28;20058;-80
2021/09/02 06:05:26;;;;;;;9.15;5.25;;;;;;;14.34;78.19;102611.16;4925141;29;20051;-79
2021/09/02 06:07:53;;;;;;;11.07;5.65;;;;;;;14.35;77.88;102610.00;4946464;28;20138;-80
2021/09/02 06:10:19;;;;;;;9.52;5.00;;;;;;;14.33;77.75;102610.31;4928033;29;20102;-80
2021/09/02 06:12:46;;;;;;;9.15;5.97;;;;;;;14.31;77.51;102607.03;4945298;29;20047;-80
2021/09/02 06:15:13;;;;;;;9.95;5.95;;;;;;;14.31;77.63;102609.84;4930532;29;20045;-80
2021/09/02 06:17:40;;;;;;;9.43;5.25;;;;;;;14.32;77.33;102610.66;4929243;29;20181;-79
2021/09/02 06:20:07;;;;;;;14.70;5.75;;;;;;;14.33;77.21;102604.75;4949456;29;20122;-80
2021/09/02 06:22:35;;;;;;;9.48;5.75;;;;;;;14.36;77.18;102614.41;4951039;28;20047;-80
2021/09/02 06:25:06;;;;;;;7.00;5.13;;;;;;;14.35;76.86;102607.22;4929561;29;20667;-80
2021/09/02 06:27:33;;;;;;;10.13;5.60;;;;;;;14.35;76.45;102618.38;4945186;29;20051;-79
2021/09/02 06:30:00;;;;;;;9.73;5.93;;;;;;;14.33;76.42;102607.53;4945661;29;20055;-79
2021/09/02 06:32:27;;;;;;;9.23;5.05;;;;;;;14.35;76.39;102607.22;4947170;28;20127;-80
2021/09/02 06:34:54;;;;;;;11.85;5.95;;;;;;;14.37;76.09;102616.06;4949402;29;20055;-79
2021/09/02 06:37:21;;;;;;;11.13;5.88;;;;;;;14.36;76.04;102606.06;4949001;29;20049;-80
2021/09/02 06:39:47;;;;;;;12.00;6.63;;;;;;;14.39;75.91;102613.78;4949830;29;20038;-80
2021/09/02 06:42:14;;;;;;;14.68;5.85;;;;;;;14.39;75.46;102611.00;4949506;29;20097;-80
2021/09/02 06:44:41;;;;;;;11.25;5.68;;;;;;;14.42;75.38;102607.56;4932181;29;20077;-80
2021/09/02 06:47:08;;;;;;;9.02;5.53;;;;;;;14.44;75.27;102611.66;4948729;29;20664;-79
2021/09/02 06:49:34;;;;;;;9.45;5.60;;;;;;;14.47;74.74;102612.97;4931926;29;20043;-80
2021/09/02 06:52:01;;;;;;;7.20;5.65;;;;;;;14.50;74.78;102615.94;4931878;29;20039;-79
2021/09/02 06:54:28;;;;;;;8.52;4.82;;;;;;;14.51;74.39;102622.31;4949747;29;20046;-79
2021/09/02 06:56:55;;;;;;;10.93;5.80;;;;;;;14.53;74.20;102620.03;4949122;29;20049;-80
2021/09/02 06:59:22;;;;;;;11.10;5.35;;;;;;;14.56;74.13;102630.53;4932044;29;20487;-80
2021/09/02 07:01:48;;;;;;;10.30;5.15;;;;;;;14.59;74.21;102627.06;4947356;29;20043;-79
2021/09/02 07:04:15;;;;;;;8.20;5.57;;;;;;;14.62;74.02;102626.41;4948510;29;20454;-79
2021/09/02 07:06:42;;;;;;;10.65;5.63;;;;;;;14.62;73.98;102629.19;4948990;29;21101;-79
2021/09/02 07:09:09;;;;;;;10.70;5.95;;;;;;;14.63;74.02;102622.50;4946825;29;20055;-80
2021/09/02 07:11:35;;;;;;;9.75;5.57;;;;;;;14.64;73.88;102610.16;4930424;28;20053;-79
2021/09/02 07:14:04;;;;;;;22.58;6.55;;;;;;;14.63;73.97;102622.50;4948775;28;20028;-80
2021/09/02 07:16:31;;;;;;;8.68;5.45;;;;;;;14.63;73.79;102616.91;4930888;29;20088;-80
2021/09/02 07:18:58;;;;;;;9.73;5.45;;;;;;;14.67;73.91;102615.09;4949364;29;20157;-80
2021/09/02 07:21:25;;;;;;;11.43;5.40;;;;;;;14.70;73.87;102621.97;4932067;29;20063;-80
2021/09/02 07:23:52;;;;;;;13.80;5.82;;;;;;;14.73;73.93;102626.91;4948134;29;20058;-80
2021/09/02 07:26:20;;;;;;;16.85;6.72;;;;;;;14.70;73.99;102616.41;4947615;29;20073;-79
2021/09/02 07:28:46;;;;;;;11.25;6.07;;;;;;;14.70;73.61;102620.03;4948342;29;20485;-80
2021/09/02 07:31:13;;;;;;;9.38;5.28;;;;;;;14.71;73.53;102626.44;4948253;29;20048;-80
2021/09/02 07:33:41;;;;;;;16.25;6.20;;;;;;;14.75;73.48;102628.22;4948541;29;20102;-80
2021/09/02 07:36:08;;;;;;;9.77;6.07;;;;;;;14.75;73.35;102627.41;4948711;29;20043;-80
2021/09/02 07:38:35;;;;;;;13.77;5.50;;;;;;;14.74;73.57;102634.97;4945621;28;20058;-83
2021/09/02 07:41:02;;;;;;;10.20;5.57;;;;;;;14.75;73.64;102627.41;4931543;29;20078;-82
2021/09/02 07:43:30;;;;;;;7.85;5.55;;;;;;;14.75;73.11;102633.81;4945816;28;20507;-83
2021/09/02 07:45:56;;;;;;;11.93;5.80;;;;;;;14.77;73.11;102639.91;4945998;29;20554;-83
2021/09/02 07:48:24;;;;;;;12.35;5.65;;;;;;;14.73;72.83;102636.09;4915460;29;20051;-83
2021/09/02 07:50:51;;;;;;;10.90;5.35;;;;;;;14.75;72.72;102631.00;4947775;29;20051;-83
2021/09/02 07:53:18;;;;;;;10.88;5.50;;;;;;;14.76;72.59;102631.84;4947540;29;20073;-83
2021/09/02 07:55:45;;;;;;;9.98;5.22;;;;;;;14.78;72.44;102630.34;4929432;29;20154;-83
2021/09/02 07:58:12;;;;;;;13.85;5.43;;;;;;;14.79;72.36;102640.38;4947511;29;20047;-83
2021/09/02 08:00:39;;;;;;;9.70;5.28;;;;;;;14.86;72.55;102634.28;4939069;29;20040;-84
2021/09/02 08:03:06;;;;;;;13.75;7.05;;;;;;;14.88;72.38;102635.59;4911099;29;20396;-84
2021/09/02 08:05:37;;;;;;;9.10;6.03;;;;;;;14.87;72.44;102631.19;4944378;28;20055;-83
2021/09/02 08:08:05;;;;;;;14.23;6.28;;;;;;;14.86;72.30;102628.72;4928887;29;20076;-85
2021/09/02 08:10:32;;;;;;;9.35;5.95;;;;;;;14.87;72.20;102631.19;4946409;29;20074;-83
2021/09/02 08:13:00;;;;;;;10.93;6.20;;;;;;;14.87;72.43;102636.78;4930934;29;20398;-83
2021/09/02 08:15:27;;;;;;;16.13;8.23;;;;;;;14.86;72.34;102637.91;4947330;29;20043;-84
2021/09/02 08:17:58;;;;;;;10.20;5.72;;;;;;;14.85;72.18;102633.47;4930224;29;20574;-83
2021/09/02 08:20:26;;;;;;;12.20;5.22;;;;;;;14.87;72.25;102633.97;4929772;29;20047;-83
2021/09/02 08:22:53;;;;;;;10.65;6.32;;;;;;;14.89;72.17;102630.84;4944096;29;20047;-83
2021/09/02 08:25:21;;;;;;;9.52;5.28;;;;;;;14.91;72.17;102632.16;4946772;29;20892;-83
2021/09/02 08:27:48;;;;;;;12.93;7.25;;;;;;;14.88;72.15;102630.03;4947466;28;20118;-83
2021/09/02 08:30:18;;;;;;;15.32;6.55;;;;;;;14.88;71.82;102630.03;4946922;28;20158;-83
2021/09/02 08:32:47;;;;;;;10.98;5.25;;;;;;;14.90;72.33;102635.28;4928766;29;20876;-83
2021/09/02 08:35:33;;;;;;;12.82;7.30;;;;;;;14.91;72.23;102626.59;4946327;28;20046;-81
2021/09/02 08:38:04;;;;;;;12.98;4.95;;;;;;;14.95;72.25;102627.59;4946638;29;20043;-79
2021/09/02 08:40:35;;;;;;;15.45;5.97;;;;;;;14.98;72.00;102626.94;4946962;29;20053;-80
2021/09/02 08:43:03;;;;;;;10.70;5.57;;;;;;;15.02;71.99;102627.88;4938375;29;20095;-80
2021/09/02 08:45:31;;;;;;;9.05;5.32;;;;;;;15.00;71.60;102627.41;4927604;29;20126;-80
2021/09/02 08:48:00;;;;;;;10.65;6.00;;;;;;;14.99;71.85;102628.53;4927905;29;20052;-80
2021/09/02 08:50:29;;;;;;;10.90;5.90;;;;;;;15.02;71.76;102636.25;4919036;29;20051;-79
2021/09/02 08:52:59;;;;;;;30.45;7.82;;;;;;;15.02;71.81;102633.47;4935088;29;20627;-80
2021/09/02 08:55:27;;;;;;;18.48;6.40;;;;;;;15.03;71.80;102632.34;4926456;29;20036;-84
2021/09/02 08:57:54;;;;;;;13.23;6.72;;;;;;;15.05;71.70;102638.41;4927607;29;20043;-82
2021/09/02 09:00:23;;;;;;;10.75;5.70;;;;;;;15.05;71.43;102632.00;4927686;29;20107;-83
2021/09/02 09:03:02;;;;;;;11.93;6.25;;;;;;;15.07;71.91;102629.69;4927187;29;20135;-84
2021/09/02 09:05:34;;;;;;;11.00;6.05;;;;;;;15.09;71.87;102628.19;4923983;29;20154;-80
2021/09/02 09:08:08;;;;;;;17.35;6.75;;;;;;;15.15;71.88;102638.06;4941099;29;20055;-80
2021/09/02 09:10:35;;;;;;;14.02;6.57;;;;;;;15.12;71.60;102633.13;4926228;29;20451;-81
2021/09/02 09:13:04;;;;;;;11.60;7.20;;;;;;;15.11;71.40;102637.09;4926957;29;20035;-81
2021/09/02 09:15:36;;;;;;;15.18;7.00;;;;;;;15.10;71.32;102634.59;4927126;29;20070;-80
2021/09/02 09:18:22;;;;;;;;;;;;;;;15.05;70.91;102641.19;4923662;29;20080;-81
2021/09/02 09:21:14;;;;;;;16.75;7.57;;;;;;;15.07;71.26;102638.06;4940023;28;19923;-80
2021/09/02 09:23:51;;;;;;;17.27;7.40;;;;;;;15.07;71.22;102627.72;4927205;29;20091;-81
2021/09/02 09:26:18;;;;;;;12.70;6.90;;;;;;;15.10;71.25;102638.22;4925826;29;20063;-80
2021/09/02 09:28:44;;;;;;;15.32;7.75;;;;;;;15.16;71.21;102634.13;4926860;29;20055;-80
2021/09/02 09:31:36;;;;;;;12.82;7.22;;;;;;;15.19;70.77;102636.25;4926105;29;20039;-81
2021/09/02 09:34:06;;;;;;;12.77;7.70;;;;;;;15.23;70.97;102640.00;4925276;29;20047;-80
2021/09/02 09:36:37;;;;;;;14.27;6.70;;;;;;;15.27;70.54;102633.78;4926453;29;20055;-81
2021/09/02 09:39:09;;;;;;;14.52;7.63;;;;;;;15.24;70.13;102627.72;4927057;29;20047;-81
2021/09/02 09:41:41;;;;;;;14.98;7.85;;;;;;;15.26;70.08;102619.00;4929405;29;20076;-81
2021/09/02 09:44:14;;;;;;;16.42;7.90;;;;;;;15.24;70.18;102627.72;4923927;29;20095;-81
2021/09/02 09:46:41;;;;;;;18.45;8.13;;;;;;;15.27;70.48;102628.19;4918206;29;20043;-82
2021/09/02 09:49:08;;;;;;;12.90;7.22;;;;;;;15.27;70.50;102629.81;4926064;29;20055;-81
2021/09/02 09:51:37;;;;;;;16.50;7.88;;;;;;;15.34;70.56;102625.69;4912041;29;20054;-82
2021/09/02 09:54:04;;;;;;;12.98;7.10;;;;;;;15.38;70.47;102632.28;4912353;29;20047;-81
2021/09/02 09:56:31;;;;;;;14.50;7.68;;;;;;;15.41;70.66;102628.81;4912654;29;20050;-81
2021/09/02 09:58:58;;;;;;;15.32;8.50;;;;;;;15.40;70.59;102622.41;4925219;29;20152;-82
2021/09/02 10:01:27;;;;;;;16.35;7.40;;;;;;;15.41;70.50;102617.66;4927148;29;20043;-76
2021/09/02 10:03:55;;;;;;;12.73;8.32;;;;;;;15.39;70.50;102619.94;4894918;29;20052;-81
2021/09/02 10:06:24;;;;;;;15.50;9.13;;;;;;;15.42;70.70;102627.66;4925727;29;20111;-81
2021/09/02 10:08:51;;;;;;;16.70;10.23;;;;;;;15.50;70.69;102624.06;4908579;29;20050;-83
2021/09/02 10:11:20;;;;;;;12.20;7.63;;;;;;;15.53;70.22;102623.38;4891349;29;20150;-80
2021/09/02 10:13:49;;;;;;;14.82;8.73;;;;;;;15.51;70.16;102628.50;4924730;29;20115;-84
2021/09/02 10:16:16;;;;;;;13.52;7.22;;;;;;;15.48;69.88;102623.56;4894770;29;20063;-81
2021/09/02 10:18:45;;;;;;;13.70;8.60;;;;;;;15.49;69.94;102626.00;4922644;29;20500;-83
2021/09/02 10:21:14;;;;;;;11.73;7.72;;;;;;;15.51;69.96;102628.50;4922818;29;20079;-83
2021/09/02 10:23:42;;;;;;;15.15;8.38;;;;;;;15.49;69.75;102623.22;4901842;29;20139;-81
2021/09/02 10:26:33;;;;;;;17.58;9.85;;;;;;;15.45;69.47;102629.78;4927800;29;20090;-84
2021/09/02 10:29:21;;;;;;;16.05;8.48;;;;;;;15.43;69.74;102623.72;4910183;29;20067;-83
2021/09/02 10:31:48;;;;;;;14.45;8.45;;;;;;;15.42;69.32;102631.28;4921939;29;20087;-83
2021/09/02 10:34:30;;;;;;;15.95;9.35;;;;;;;15.47;68.99;102621.91;4909143;29;20050;-82
2021/09/02 10:36:57;;;;;;;13.48;8.30;;;;;;;15.50;69.16;102626.84;4908132;29;20051;-82
2021/09/02 10:39:41;;;;;;;12.13;8.27;;;;;;;15.55;69.16;102623.88;4909222;29;20055;-84
2021/09/02 10:42:09;;;;;;;21.05;8.65;;;;;;;15.59;69.13;102617.31;4923805;29;20061;-83
2021/09/02 10:44:52;;;;;;;14.15;7.82;;;;;;;15.61;68.34;102616.97;4939332;29;20116;-82
2021/09/02 10:47:19;;;;;;;11.93;8.10;;;;;;;15.66;68.69;102602.81;4934862;29;20155;-82
2021/09/02 10:50:01;;;;;;;10.43;7.13;;;;;;;15.64;67.76;102603.16;4922820;29;20452;-84
2021/09/02 10:52:28;;;;;;;15.27;8.25;;;;;;;15.65;68.79;102604.78;4932558;29;20502;-82
2021/09/02 10:55:28;;;;;;;10.90;7.35;;;;;;;15.65;68.31;102601.97;4922102;29;20083;-83
2021/09/02 10:57:57;;;;;;;11.95;7.47;;;;;;;15.66;68.88;102605.59;4941862;29;20497;-83
2021/09/02 11:00:30;;;;;;;14.65;8.10;;;;;;;15.67;68.97;102601.66;4934060;29;20819;-84
2021/09/02 11:03:14;;;;;;;11.02;7.05;;;;;;;15.68;68.93;102592.13;4943894;28;20098;-83
2021/09/02 11:05:56;;;;;;;13.73;7.22;;;;;;;15.67;68.93;102593.28;4941175;29;20455;-83
2021/09/02 11:08:31;;;;;;;17.98;8.18;;;;;;;15.69;69.17;102593.78;4919957;29;20043;-84
2021/09/02 11:11:31;;;;;;;19.00;9.48;;;;;;;15.69;68.78;102594.59;4933646;29;20484;-84
2021/09/02 11:13:57;;;;;;;29.33;10.07;;;;;;;15.72;69.43;102595.91;4882736;29;20068;-84
2021/09/02 11:16:25;;;;;;;11.52;7.75;;;;;;;15.76;69.22;102586.50;4920360;29;20051;-83
2021/09/02 11:18:54;;;;;;;13.55;7.65;;;;;;;15.78;69.23;102586.16;4936527;28;20075;-83
2021/09/02 11:21:26;;;;;;;13.57;8.25;;;;;;;15.83;69.08;102586.78;4945645;29;20149;-82
2021/09/02 11:23:59;;;;;;;15.50;8.82;;;;;;;15.89;69.07;102590.22;4922695;29;20055;-83
2021/09/02 11:26:33;;;;;;;14.38;8.95;;;;;;;15.90;69.26;102585.44;4922522;29;20086;-82